Time;durP1;ratioP1;P1;durP2;ratioP2;P2;SDS_P1;SDS_P2;PMS_P1;PMS_P2;Temp;Humidity;BMP_temperature;BMP_pressure;BME280_temperature;BME280_humidity;BME280_pressure;Samples;Min_cycle;Max_cycle;Signal;HPM_P1;HPM_P2
2022/10/03 00:01:36;;;;;;;16.90;5.60;;;;;;;8.34;97.31;102521.09;5040388;28;20033;-82
2022/10/03 00:04:25;;;;;;;15.70;6.15;;;;;;;8.32;96.97;102526.44;5034752;28;20499;-82
2022/10/03 00:07:18;;;;;;;14.88;5.80;;;;;;;8.31;97.24;102522.09;5044287;28;20028;-82
2022/10/03 00:10:02;;;;;;;11.57;5.45;;;;;;;8.30;97.22;102522.13;5038248;28;20037;-81
2022/10/03 00:13:04;;;;;;;18.00;5.60;;;;;;;8.20;96.71;102511.06;5039536;28;20120;-82
2022/10/03 00:15:52;;;;;;;12.45;4.72;;;;;;;8.21;96.22;102526.03;5034971;28;20041;-82
2022/10/03 00:18:31;;;;;;;16.00;5.47;;;;;;;8.20;96.27;102526.09;5031639;28;20040;-83
2022/10/03 00:21:17;;;;;;;13.20;5.15;;;;;;;8.15;97.16;102521.81;5038676;28;20069;-83
2022/10/03 00:24:04;;;;;;;16.25;6.10;;;;;;;8.07;96.47;102521.25;5039108;28;20056;-83
2022/10/03 00:26:48;;;;;;;16.63;5.50;;;;;;;8.07;96.63;102529.19;5037847;28;20487;-82
2022/10/03 00:29:24;;;;;;;13.35;5.65;;;;;;;8.05;96.91;102535.47;5032838;28;20112;-82
2022/10/03 00:32:30;;;;;;;19.40;5.70;;;;;;;8.04;96.54;102533.75;5045983;28;20051;-82
2022/10/03 00:35:11;;;;;;;17.88;5.65;;;;;;;7.90;96.51;102516.63;5048890;28;20097;-82
2022/10/03 00:37:44;;;;;;;17.38;5.32;;;;;;;7.93;96.64;102529.75;5042270;28;20376;-82
2022/10/03 00:40:15;;;;;;;17.00;5.90;;;;;;;7.96;96.19;102540.22;5042288;28;20056;-82
2022/10/03 00:43:15;;;;;;;11.30;5.30;;;;;;;8.00;96.73;102548.03;5050873;28;20342;-82
2022/10/03 00:46:12;;;;;;;13.20;6.30;;;;;;;7.93;96.92;102542.97;5034781;28;20037;-81
2022/10/03 00:48:56;;;;;;;12.23;5.38;;;;;;;7.94;96.79;102547.34;5034876;28;20460;-82
2022/10/03 00:54:25;;;;;;;17.85;6.15;;;;;;;7.89;97.29;102557.25;5036422;28;20052;-80
2022/10/03 00:57:47;;;;;;;16.50;6.55;;;;;;;7.87;97.79;102553.78;5039338;28;20092;-80
2022/10/03 01:00:33;;;;;;;20.70;6.70;;;;;;;7.84;97.18;102563.63;4952178;28;20023;-79
2022/10/03 01:03:40;;;;;;;17.65;6.38;;;;;;;7.81;97.43;102564.59;5031974;28;20111;-80
2022/10/03 01:06:18;;;;;;;15.07;6.53;;;;;;;7.73;97.23;102556.94;5036535;28;20457;-80
2022/10/03 01:09:10;;;;;;;14.50;5.85;;;;;;;7.74;97.39;102566.63;5024849;28;20029;-80
2022/10/03 01:11:45;;;;;;;15.25;6.28;;;;;;;7.71;97.86;102569.38;5033859;28;20030;-80
2022/10/03 01:14:24;;;;;;;12.60;5.25;;;;;;;7.70;98.06;102572.91;5035260;28;20037;-80
2022/10/03 01:17:08;;;;;;;13.65;6.53;;;;;;;7.68;98.59;102573.91;5034937;28;20037;-80
2022/10/03 01:19:51;;;;;;;10.93;5.40;;;;;;;7.68;98.89;102579.22;5035130;28;20026;-81
2022/10/03 01:22:30;;;;;;;15.70;5.20;;;;;;;7.65;99.34;102580.16;5032633;28;20085;-80
2022/10/03 01:24:55;;;;;;;10.70;4.90;;;;;;;7.66;98.76;102581.03;5032030;28;20028;-80
2022/10/03 01:30:56;;;;;;;13.57;5.30;;;;;;;7.60;99.09;102585.63;5034538;28;20314;-80
2022/10/03 01:33:30;;;;;;;15.07;5.30;;;;;;;7.50;98.78;102573.66;5034597;28;20033;-80
2022/10/03 01:36:02;;;;;;;9.45;4.90;;;;;;;7.59;98.43;102585.66;5036138;28;20064;-80
2022/10/03 01:38:35;;;;;;;12.02;5.10;;;;;;;7.54;98.43;102591.16;5034993;28;20394;-80
2022/10/03 01:41:05;;;;;;;15.38;6.20;;;;;;;7.53;98.28;102585.91;5024044;28;20017;-80
2022/10/03 01:44:12;;;;;;;16.30;6.22;;;;;;;7.54;98.78;102588.50;5037509;28;20040;-80
2022/10/03 01:46:41;;;;;;;12.95;5.78;;;;;;;7.48;98.38;102587.84;4964745;28;20056;-80
2022/10/03 01:49:16;;;;;;;11.98;5.30;;;;;;;7.49;98.96;102594.84;5047571;28;20052;-82
2022/10/03 01:52:02;;;;;;;12.70;5.30;;;;;;;7.44;99.62;102591.50;5039543;28;20036;-81
2022/10/03 01:54:33;;;;;;;15.65;5.88;;;;;;;7.45;99.33;102586.16;5042358;28;20140;-82
2022/10/03 01:57:30;;;;;;;14.27;5.55;;;;;;;7.46;100.00;102579.97;5034196;28;20060;-81
2022/10/03 02:00:04;;;;;;;12.18;5.55;;;;;;;7.45;100.00;102588.81;5036195;28;20083;-81
2022/10/03 02:02:41;;;;;;;8.57;5.32;;;;;;;7.40;99.53;102590.75;5027545;28;20037;-81
2022/10/03 02:05:13;;;;;;;12.00;5.63;;;;;;;7.38;100.00;102577.59;5037672;28;20435;-81
2022/10/03 02:08:16;;;;;;;15.43;5.85;;;;;;;7.40;100.00;102583.69;5046171;28;20092;-81
2022/10/03 02:10:59;;;;;;;13.18;5.50;;;;;;;7.36;100.00;102584.72;5062837;28;20729;-82
2022/10/03 02:13:36;;;;;;;13.73;5.95;;;;;;;7.32;100.00;102583.09;5046580;28;20033;-82
2022/10/03 02:16:09;;;;;;;14.75;6.32;;;;;;;7.34;100.00;102583.03;5048766;28;20022;-82
2022/10/03 02:18:46;;;;;;;14.30;5.97;;;;;;;7.35;100.00;102593.56;5047947;28;20047;-81
2022/10/03 02:21:21;;;;;;;12.90;5.80;;;;;;;7.36;100.00;102594.41;5047302;28;20021;-81
2022/10/03 02:24:01;;;;;;;15.10;6.65;;;;;;;7.35;100.00;102596.19;5047478;28;20033;-81
2022/10/03 02:26:51;;;;;;;16.05;6.05;;;;;;;7.35;100.00;102595.34;5037685;28;20388;-81
2022/10/03 02:29:38;;;;;;;14.52;5.88;;;;;;;7.34;100.00;102593.59;5052279;28;20535;-81
2022/10/03 02:32:09;;;;;;;17.17;5.93;;;;;;;7.33;100.00;102592.75;5045347;28;20052;-82
2022/10/03 02:34:47;;;;;;;15.50;5.90;;;;;;;7.31;100.00;102591.97;5038949;28;20060;-81
2022/10/03 02:37:38;;;;;;;12.77;6.20;;;;;;;7.30;100.00;102595.50;5038612;28;20045;-81
2022/10/03 02:40:28;;;;;;;13.18;6.43;;;;;;;7.29;100.00;102593.75;5038320;28;20449;-81
2022/10/03 02:43:19;;;;;;;15.55;6.72;;;;;;;7.29;100.00;102595.56;5037954;28;20033;-81
2022/10/03 02:45:45;;;;;;;15.23;6.03;;;;;;;7.26;100.00;102588.59;5037536;28;20160;-82
2022/10/03 02:48:39;;;;;;;13.95;6.78;;;;;;;7.27;100.00;102600.03;5037448;28;20108;-81
2022/10/03 02:51:27;;;;;;;16.08;6.30;;;;;;;7.25;100.00;102584.22;5045327;28;20060;-81
2022/10/03 02:54:21;;;;;;;16.60;6.55;;;;;;;7.22;100.00;102593.13;5036950;28;20045;-80
2022/10/03 02:57:11;;;;;;;11.57;5.90;;;;;;;7.19;100.00;102587.06;5014684;28;20088;-80
2022/10/03 02:59:37;;;;;;;10.27;5.93;;;;;;;7.18;100.00;102582.72;5039326;28;20033;-81
2022/10/03 03:02:50;;;;;;;11.50;5.73;;;;;;;7.19;100.00;102587.06;5057948;28;20473;-81
2022/10/03 03:05:53;;;;;;;11.25;6.10;;;;;;;7.17;100.00;102587.13;4976362;28;20038;-81
2022/10/03 03:08:43;;;;;;;12.93;6.07;;;;;;;7.14;100.00;102587.22;5041518;28;20033;-81
2022/10/03 03:11:27;;;;;;;11.52;6.05;;;;;;;7.13;100.00;102588.16;5024705;28;20021;-81
2022/10/03 03:14:10;;;;;;;14.73;6.90;;;;;;;7.09;100.00;102583.88;5034943;28;20322;-81
2022/10/03 03:17:11;;;;;;;10.90;5.55;;;;;;;7.09;100.00;102593.59;5029547;28;20064;-80
2022/10/03 03:20:10;;;;;;;15.55;5.85;;;;;;;7.06;100.00;102588.41;4966508;28;20094;-81
2022/10/03 03:23:01;;;;;;;14.05;6.53;;;;;;;7.05;100.00;102595.47;5026217;28;20026;-81
2022/10/03 03:25:46;;;;;;;13.77;6.28;;;;;;;7.02;100.00;102600.84;5035132;28;20068;-81
2022/10/03 03:28:27;;;;;;;11.52;6.70;;;;;;;7.02;100.00;102595.56;5037179;28;20022;-80
2022/10/03 03:31:08;;;;;;;12.25;6.05;;;;;;;7.01;99.93;102599.13;5035356;28;20041;-80
2022/10/03 03:34:12;;;;;;;11.65;6.28;;;;;;;7.03;100.00;102607.88;5035633;28;20504;-81
2022/10/03 03:36:57;;;;;;;10.55;6.10;;;;;;;6.95;99.39;102599.34;5037484;28;20048;-81
2022/10/03 03:39:36;;;;;;;13.50;6.40;;;;;;;6.95;99.90;102605.47;5028906;28;20037;-81
2022/10/03 03:42:17;;;;;;;11.60;6.13;;;;;;;6.94;100.00;102603.75;5031161;28;20044;-81
2022/10/03 03:45:11;;;;;;;12.88;5.90;;;;;;;6.93;100.00;102612.59;5037282;28;20037;-82
2022/10/03 03:47:58;;;;;;;9.23;5.53;;;;;;;6.93;100.00;102611.72;5051123;28;20025;-82
2022/10/03 03:50:31;;;;;;;8.95;5.80;;;;;;;6.90;99.77;102611.84;5036027;28;20044;-80
2022/10/03 03:53:05;;;;;;;12.82;5.85;;;;;;;6.87;99.97;102612.78;5035460;28;20111;-81
2022/10/03 03:55:45;;;;;;;15.50;6.22;;;;;;;6.86;100.00;102616.34;5037875;28;20036;-82
2022/10/03 03:58:23;;;;;;;12.55;5.95;;;;;;;6.81;100.00;102611.22;5034074;28;20029;-80
2022/10/03 04:01:03;;;;;;;12.10;5.95;;;;;;;6.82;100.00;102612.94;5043056;28;20033;-81
2022/10/03 04:03:45;;;;;;;14.35;6.13;;;;;;;6.81;100.00;102619.16;5044321;28;20029;-82
2022/10/03 04:06:39;;;;;;;14.70;6.47;;;;;;;6.71;100.00;102601.88;5037562;28;20068;-80
2022/10/03 04:09:07;;;;;;;12.27;6.47;;;;;;;6.77;100.00;102620.16;5055203;28;20052;-82
2022/10/03 04:11:58;;;;;;;12.18;5.95;;;;;;;6.78;100.00;102613.97;5040730;28;20032;-80
2022/10/03 04:14:39;;;;;;;11.55;6.30;;;;;;;6.77;100.00;102616.66;5035472;28;20021;-80
2022/10/03 04:20:35;;;;;;;12.38;6.95;;;;;;;6.75;100.00;102618.50;5036078;28;20095;-81
2022/10/03 04:23:22;;;;;;;14.93;6.45;;;;;;;6.73;100.00;102625.56;5048368;28;20032;-81
2022/10/03 04:26:09;;;;;;;13.98;6.18;;;;;;;6.74;100.00;102622.03;5038074;28;20037;-81
2022/10/03 04:29:05;;;;;;;14.68;6.20;;;;;;;6.69;100.00;102618.69;5049240;28;20035;-81
2022/10/03 04:31:48;;;;;;;9.43;5.85;;;;;;;6.69;100.00;102626.59;5030333;28;20056;-81
2022/10/03 04:34:31;;;;;;;17.20;6.22;;;;;;;6.67;100.00;102618.72;5039673;28;20049;-81
2022/10/03 04:37:34;;;;;;;13.52;6.47;;;;;;;6.69;100.00;102626.59;5027285;28;20068;-81
2022/10/03 04:40:18;;;;;;;10.45;6.10;;;;;;;6.67;100.00;102630.13;5047951;28;20052;-80
2022/10/03 04:43:08;;;;;;;13.93;6.20;;;;;;;6.67;100.00;102619.56;5038812;28;20110;-82
2022/10/03 04:45:59;;;;;;;10.38;5.80;;;;;;;6.65;100.00;102620.56;5029970;28;20040;-81
2022/10/03 04:48:50;;;;;;;11.82;5.82;;;;;;;6.66;100.00;102616.97;5035700;28;20040;-82
2022/10/03 04:51:25;;;;;;;11.75;5.50;;;;;;;6.63;100.00;102619.75;5015044;28;20029;-81
2022/10/03 04:54:38;;;;;;;12.30;5.63;;;;;;;6.68;100.00;102620.47;5037373;28;20392;-81
2022/10/03 04:57:34;;;;;;;12.57;5.75;;;;;;;6.65;100.00;102618.75;4997949;28;20441;-81
2022/10/03 05:00:48;;;;;;;9.10;5.70;;;;;;;6.66;100.00;102609.94;5037571;28;20052;-81
2022/10/03 05:03:52;;;;;;;10.05;5.38;;;;;;;6.67;100.00;102624.84;5025642;28;20041;-82
2022/10/03 05:06:23;;;;;;;12.27;5.57;;;;;;;6.64;100.00;102630.25;5037371;28;20453;-81
2022/10/03 05:09:19;;;;;;;10.18;5.57;;;;;;;6.64;100.00;102626.72;5045794;28;20028;-81
2022/10/03 05:11:58;;;;;;;13.23;6.05;;;;;;;6.60;100.00;102630.41;5031630;28;20029;-82
2022/10/03 05:14:48;;;;;;;18.08;5.63;;;;;;;6.62;100.00;102637.34;5035143;28;20029;-82
2022/10/03 05:17:43;;;;;;;10.57;5.50;;;;;;;6.58;100.00;102643.66;5037400;28;20026;-82
2022/10/03 05:20:24;;;;;;;8.70;5.10;;;;;;;6.59;100.00;102633.94;5036773;28;20029;-81
2022/10/03 05:22:56;;;;;;;12.07;5.68;;;;;;;6.55;100.00;102641.09;5055903;28;20030;-81
2022/10/03 05:25:40;;;;;;;10.40;5.93;;;;;;;6.56;100.00;102642.84;5038088;28;20029;-81
2022/10/03 05:28:14;;;;;;;10.85;5.28;;;;;;;6.46;100.00;102625.53;5037748;28;20067;-81
2022/10/03 05:30:52;;;;;;;12.52;5.85;;;;;;;6.54;100.00;102641.13;5040004;28;20059;-82
2022/10/03 05:33:26;;;;;;;13.00;5.40;;;;;;;6.52;100.00;102648.25;5039518;28;20061;-81
2022/10/03 05:36:07;;;;;;;10.35;5.30;;;;;;;6.54;100.00;102649.06;5041666;28;20042;-82
2022/10/03 05:38:45;;;;;;;12.90;5.82;;;;;;;6.54;100.00;102651.69;5041549;28;20040;-81
2022/10/03 05:41:26;;;;;;;10.68;6.13;;;;;;;6.57;100.00;102656.88;5042119;28;20033;-82
2022/10/03 05:43:57;;;;;;;13.05;6.13;;;;;;;6.53;100.00;102656.13;5021858;28;20490;-82
2022/10/03 05:46:37;;;;;;;13.77;6.25;;;;;;;6.52;100.00;102661.44;5041946;28;20017;-82
2022/10/03 05:49:24;;;;;;;12.27;6.53;;;;;;;6.53;100.00;102660.50;5038212;28;20041;-81
2022/10/03 05:52:12;;;;;;;10.18;5.97;;;;;;;6.48;100.00;102658.91;5038943;28;20070;-81
2022/10/03 05:54:53;;;;;;;9.95;5.47;;;;;;;6.51;100.00;102657.91;5037027;28;20037;-81
2022/10/03 05:57:30;;;;;;;13.93;6.00;;;;;;;6.53;100.00;102660.50;5028622;28;20082;-81
2022/10/03 06:00:13;;;;;;;8.07;5.65;;;;;;;6.53;100.00;102655.22;5030484;28;20022;-82
2022/10/03 06:02:39;;;;;;;14.05;6.90;;;;;;;6.56;100.00;102666.59;5041244;28;20172;-82
2022/10/03 06:05:16;;;;;;;14.77;6.40;;;;;;;6.56;100.00;102663.94;5037858;28;20081;-81
2022/10/03 06:07:50;;;;;;;11.73;6.20;;;;;;;6.59;100.00;102673.53;5042860;28;20033;-81
2022/10/03 06:10:34;;;;;;;13.25;6.97;;;;;;;6.60;100.00;102672.63;5039698;28;20025;-80
2022/10/03 06:13:13;;;;;;;10.07;6.82;;;;;;;6.61;100.00;102672.59;5036227;28;20532;-80
2022/10/03 06:15:56;;;;;;;14.52;7.15;;;;;;;6.62;100.00;102673.44;5038577;28;20083;-81
2022/10/03 06:18:33;;;;;;;11.80;7.05;;;;;;;6.64;100.00;102671.63;5036752;28;20057;-81
2022/10/03 06:21:11;;;;;;;16.08;6.82;;;;;;;6.70;100.00;102676.72;5037008;28;20071;-82
2022/10/03 06:24:07;;;;;;;13.70;6.65;;;;;;;6.72;100.00;102677.53;5034118;28;20114;-82
2022/10/03 06:26:51;;;;;;;13.73;6.93;;;;;;;6.76;100.00;102680.94;5031402;28;20097;-82
2022/10/03 06:29:58;;;;;;;12.00;7.15;;;;;;;6.77;100.00;102680.88;5038109;28;20032;-82
2022/10/03 06:32:30;;;;;;;18.70;8.02;;;;;;;6.81;100.00;102686.94;5035429;28;20049;-81
2022/10/03 06:35:23;;;;;;;12.77;7.72;;;;;;;6.85;100.00;102691.22;5035397;28;20030;-81
2022/10/03 06:38:17;;;;;;;13.50;7.45;;;;;;;6.86;100.00;102687.66;5037145;28;20064;-82
2022/10/03 06:41:19;;;;;;;15.82;7.93;;;;;;;6.90;100.00;102686.66;5033633;28;20054;-80
2022/10/03 06:44:06;;;;;;;13.18;6.93;;;;;;;6.86;100.00;102674.44;5031879;28;20038;-80
2022/10/03 06:46:59;;;;;;;15.20;7.55;;;;;;;6.91;100.00;102677.84;5030778;28;20121;-81
2022/10/03 06:49:49;;;;;;;14.95;7.38;;;;;;;6.97;100.00;102685.53;5032812;28;20025;-81
2022/10/03 06:52:53;;;;;;;15.35;7.90;;;;;;;7.01;100.00;102679.28;5028709;28;20212;-81
2022/10/03 06:55:37;;;;;;;16.00;8.23;;;;;;;7.03;100.00;102685.34;5029659;28;20044;-81
2022/10/03 06:58:29;;;;;;;15.40;7.95;;;;;;;7.02;100.00;102672.19;5040193;28;20033;-82
2022/10/03 07:01:22;;;;;;;18.33;8.07;;;;;;;7.14;100.00;102692.06;5030885;28;20800;-80
2022/10/03 07:04:05;;;;;;;16.35;8.43;;;;;;;7.14;100.00;102694.72;5030959;28;20109;-81
2022/10/03 07:06:40;;;;;;;15.18;9.38;;;;;;;7.21;100.00;102698.88;5034034;28;20503;-80
2022/10/03 07:09:43;;;;;;;18.17;9.30;;;;;;;7.28;100.00;102696.91;5045813;28;20025;-81
2022/10/03 07:12:32;;;;;;;19.73;9.27;;;;;;;7.31;100.00;102695.03;5033728;28;20053;-81
2022/10/03 07:15:07;;;;;;;;;;;;;;;7.38;100.00;102695.69;5061142;28;20418;-81
2022/10/03 07:17:49;;;;;;;16.08;8.25;;;;;;;7.43;100.00;102693.75;5026758;28;19916;-81
2022/10/03 07:20:55;;;;;;;18.17;9.07;;;;;;;7.49;100.00;102697.97;5029489;28;20540;-81
2022/10/03 07:23:26;;;;;;;16.67;9.27;;;;;;;7.57;100.00;102706.50;5026257;28;20435;-81
2022/10/03 07:26:10;;;;;;;17.35;10.23;;;;;;;7.64;100.00;102704.50;5039614;28;20037;-81
2022/10/03 07:29:06;;;;;;;25.25;11.50;;;;;;;7.73;100.00;102714.78;5033796;28;20029;-82
2022/10/03 07:31:50;;;;;;;22.13;11.07;;;;;;;7.85;100.00;102709.06;5033087;28;20066;-82
2022/10/03 07:34:38;;;;;;;21.42;11.55;;;;;;;7.93;100.00;102717.59;5026240;28;20396;-81
2022/10/03 07:40:58;;;;;;;20.42;11.85;;;;;;;8.12;100.00;102711.63;5029034;28;20064;-81
2022/10/03 07:44:05;;;;;;;20.00;11.10;;;;;;;8.20;100.00;102716.66;4951080;28;20521;-81
2022/10/03 07:46:49;;;;;;;21.50;11.57;;;;;;;8.37;100.00;102724.84;5019707;28;20468;-82
2022/10/03 07:49:37;;;;;;;21.27;12.25;;;;;;;8.47;100.00;102722.75;5029706;28;20030;-81
2022/10/03 07:52:46;;;;;;;22.55;12.00;;;;;;;8.60;100.00;102721.34;5034956;28;20076;-82
2022/10/03 07:55:30;;;;;;;21.13;12.38;;;;;;;8.75;100.00;102727.00;5039195;28;20049;-81
2022/10/03 07:58:27;;;;;;;25.23;12.82;;;;;;;8.90;100.00;102731.69;5039158;28;20038;-79
2022/10/03 08:01:26;;;;;;;22.15;13.18;;;;;;;9.10;100.00;102738.00;5034294;28;20025;-81
2022/10/03 08:04:22;;;;;;;27.20;13.52;;;;;;;9.30;100.00;102737.19;5040493;28;20033;-82
2022/10/03 08:07:22;;;;;;;24.60;13.90;;;;;;;9.53;100.00;102734.44;5057905;28;20037;-80
2022/10/03 08:10:08;;;;;;;21.45;12.88;;;;;;;9.79;100.00;102748.38;5056189;28;20037;-82
2022/10/03 08:12:52;;;;;;;20.55;12.07;;;;;;;10.01;100.00;102732.41;5038553;28;20113;-80
2022/10/03 08:15:43;;;;;;;20.98;11.27;;;;;;;10.19;100.00;102720.97;5030970;28;20084;-81
2022/10/03 08:18:41;;;;;;;20.63;11.65;;;;;;;10.45;100.00;102734.88;5034122;28;20667;-81
2022/10/03 08:21:33;;;;;;;21.70;10.30;;;;;;;10.66;100.00;102730.38;5023043;28;20041;-80
2022/10/03 08:24:21;;;;;;;20.73;10.25;;;;;;;10.91;100.00;102731.88;5035849;28;20112;-80
2022/10/03 08:27:02;;;;;;;15.95;9.00;;;;;;;11.20;100.00;102725.13;5039076;28;20040;-80
2022/10/03 08:29:45;;;;;;;12.10;8.70;;;;;;;11.34;100.00;102727.13;5040764;28;20022;-81
2022/10/03 08:32:29;;;;;;;16.85;8.40;;;;;;;11.53;100.00;102727.06;5041234;28;20029;-81
2022/10/03 08:35:09;;;;;;;12.75;7.35;;;;;;;11.84;100.00;102728.16;5045927;28;20036;-81
2022/10/03 08:38:12;;;;;;;15.98;7.50;;;;;;;12.05;100.00;102728.00;5040476;28;20036;-82
2022/10/03 08:41:05;;;;;;;17.75;7.75;;;;;;;12.40;100.00;102732.28;5036768;28;20148;-81
2022/10/03 08:43:54;;;;;;;13.15;6.47;;;;;;;12.71;100.00;102737.78;5043158;28;20075;-80
2022/10/03 08:46:45;;;;;;;10.35;6.50;;;;;;;12.90;100.00;102714.44;5044417;28;20465;-81
2022/10/03 08:49:42;;;;;;;14.75;6.20;;;;;;;13.19;98.68;102732.41;5042257;28;20032;-81
2022/10/03 08:52:34;;;;;;;12.35;5.32;;;;;;;13.32;97.16;102718.31;5038349;28;20083;-81
2022/10/03 08:55:37;;;;;;;15.02;5.55;;;;;;;13.66;97.34;102735.00;5037915;28;20186;-79
2022/10/03 08:58:27;;;;;;;11.43;4.85;;;;;;;14.04;95.38;102736.31;5031361;28;20029;-81
2022/10/03 09:01:26;;;;;;;11.52;5.50;;;;;;;14.18;95.64;102738.16;5035032;28;20039;-80
2022/10/03 09:04:09;;;;;;;;;;;;;;;14.28;98.79;102735.75;5058754;28;20029;-80
2022/10/03 09:07:02;;;;;;;15.75;5.32;;;;;;;14.56;92.47;102722.38;5036571;28;19921;-80
2022/10/03 09:09:51;;;;;;;11.45;5.25;;;;;;;14.80;92.05;102735.16;5048861;28;20068;-81
2022/10/03 09:12:57;;;;;;;16.40;5.68;;;;;;;15.03;92.62;102735.50;5054810;28;20033;-82
2022/10/03 09:16:14;;;;;;;12.93;4.90;;;;;;;15.16;90.89;102739.06;5035521;28;20124;-81
2022/10/03 09:19:08;;;;;;;13.13;4.53;;;;;;;15.19;89.81;102730.84;5025869;28;20041;-80
2022/10/03 09:22:02;;;;;;;10.15;3.92;;;;;;;15.34;87.50;102734.34;5033527;28;20103;-82
2022/10/03 09:24:39;;;;;;;10.05;3.38;;;;;;;15.48;86.44;102728.03;5029798;28;20384;-81
2022/10/03 09:27:11;;;;;;;9.25;3.50;;;;;;;15.53;85.14;102733.94;5040784;28;20037;-81
2022/10/03 09:30:00;;;;;;;10.48;3.53;;;;;;;15.49;84.76;102721.72;5029158;28;20064;-81
2022/10/03 09:32:43;;;;;;;11.98;3.78;;;;;;;15.67;82.12;102730.31;5039966;28;20026;-81
2022/10/03 09:35:37;;;;;;;12.93;3.70;;;;;;;15.87;84.80;102723.63;5040143;28;20669;-81
2022/10/03 09:38:24;;;;;;;8.32;3.30;;;;;;;16.14;83.47;102714.59;5031002;28;20043;-79
2022/10/03 09:41:11;;;;;;;11.45;3.97;;;;;;;16.17;81.46;102712.59;5040257;28;20026;-81
2022/10/03 09:43:56;;;;;;;12.00;3.40;;;;;;;16.15;79.95;102703.78;5059638;28;20068;-81
2022/10/03 09:47:27;;;;;;;13.48;3.47;;;;;;;16.22;82.19;102706.88;5056610;28;20025;-80
2022/10/03 09:50:21;;;;;;;11.48;2.60;;;;;;;16.22;80.26;102705.09;5022451;28;20758;-81
2022/10/03 09:53:19;;;;;;;14.40;3.72;;;;;;;16.30;79.93;102712.56;5048510;28;20064;-80
2022/10/03 09:56:15;;;;;;;9.80;3.47;;;;;;;16.42;80.26;102703.66;5031058;28;20025;-82
2022/10/03 09:59:05;;;;;;;9.35;2.78;;;;;;;16.52;78.00;102705.66;5034399;28;20323;-80
2022/10/03 10:01:46;;;;;;;5.40;2.58;;;;;;;16.51;77.35;102709.31;5036602;28;20022;-81
2022/10/03 10:04:34;;;;;;;11.30;2.83;;;;;;;16.48;76.27;102696.97;5037937;28;20022;-82
2022/10/03 10:07:18;;;;;;;7.38;2.85;;;;;;;16.52;75.74;102711.03;5039107;28;20060;-81
2022/10/03 10:09:59;;;;;;;9.32;2.70;;;;;;;16.57;75.62;102703.50;5038718;28;20044;-80
2022/10/03 10:13:08;;;;;;;7.30;2.70;;;;;;;16.66;77.40;102702.84;5046980;28;20033;-81
2022/10/03 10:16:18;;;;;;;12.02;3.13;;;;;;;16.81;78.56;102690.97;5036342;28;20047;-81
2022/10/03 10:19:02;;;;;;;4.90;1.85;;;;;;;16.85;72.92;102699.69;5027696;28;20045;-80
2022/10/03 10:22:13;;;;;;;10.55;2.15;;;;;;;16.93;74.43;102699.13;5038232;28;20099;-80
2022/10/03 10:24:51;;;;;;;7.25;1.80;;;;;;;17.11;76.66;102711.16;5038318;28;20042;-80
2022/10/03 10:27:25;;;;;;;9.75;2.58;;;;;;;17.15;74.10;102703.75;5041829;28;20045;-81
2022/10/03 10:30:20;;;;;;;7.85;2.30;;;;;;;17.17;72.88;102696.44;5038190;28;20024;-79
2022/10/03 10:33:30;;;;;;;8.82;2.47;;;;;;;17.37;73.52;102694.94;5029458;28;20091;-80
2022/10/03 10:36:17;;;;;;;11.10;2.58;;;;;;;17.58;72.07;102689.72;5037745;28;20538;-80
2022/10/03 10:39:04;;;;;;;11.27;2.40;;;;;;;17.73;70.71;102688.53;5035739;28;20076;-80
2022/10/03 10:41:41;;;;;;;5.75;2.72;;;;;;;17.90;69.75;102692.66;5034925;28;20587;-80
2022/10/03 10:44:09;;;;;;;8.10;2.25;;;;;;;17.95;67.66;102694.94;5030174;28;20041;-81
2022/10/03 10:46:48;;;;;;;9.20;3.03;;;;;;;17.95;68.58;102689.56;5042932;28;20057;-80
2022/10/03 10:49:37;;;;;;;13.60;3.50;;;;;;;17.95;69.66;102694.94;5028855;28;20072;-81
2022/10/03 10:52:59;;;;;;;9.38;2.42;;;;;;;17.97;72.03;102690.31;5036334;28;20042;-80
2022/10/03 10:55:55;;;;;;;7.80;2.20;;;;;;;17.99;69.37;102698.28;5001739;28;20081;-80
2022/10/03 10:58:58;;;;;;;11.88;2.58;;;;;;;17.97;69.70;102693.00;5005858;28;20046;-80
2022/10/03 11:01:57;;;;;;;9.45;2.13;;;;;;;18.06;69.21;102694.13;5041035;28;20063;-81
2022/10/03 11:04:41;;;;;;;8.75;2.33;;;;;;;18.15;69.30;102687.13;5036794;28;20087;-82
2022/10/03 11:07:41;;;;;;;10.65;2.45;;;;;;;18.23;68.72;102696.31;5037096;28;20432;-83
2022/10/03 11:10:39;;;;;;;11.23;3.22;;;;;;;18.38;69.95;102702.28;5052461;28;20456;-83
2022/10/03 11:13:42;;;;;;;5.60;1.67;;;;;;;18.54;67.59;102693.00;5003436;28;20531;-82
2022/10/03 11:16:45;;;;;;;8.07;1.98;;;;;;;18.56;65.70;102685.66;5059805;28;20044;-82
2022/10/03 11:19:29;;;;;;;8.40;2.08;;;;;;;18.58;62.65;102684.53;5040155;28;20078;-82
2022/10/03 11:22:07;;;;;;;7.65;1.70;;;;;;;18.62;63.21;102682.47;5040829;28;20049;-82
2022/10/03 11:25:11;;;;;;;8.10;1.85;;;;;;;18.67;63.38;102677.56;5047282;28;20040;-80
2022/10/03 11:28:01;;;;;;;6.43;1.63;;;;;;;18.79;63.61;102673.00;5043703;28;20032;-81
2022/10/03 11:30:49;;;;;;;9.68;2.30;;;;;;;18.65;61.93;102669.59;5045791;28;20061;-83
2022/10/03 11:33:39;;;;;;;6.22;1.58;;;;;;;18.77;62.92;102661.47;5042795;28;20040;-81
2022/10/03 11:36:34;;;;;;;6.93;1.70;;;;;;;18.83;60.51;102669.09;5024986;28;20073;-82
2022/10/03 11:39:14;;;;;;;6.07;1.77;;;;;;;18.87;60.38;102667.88;5023341;28;20046;-82
2022/10/03 11:41:50;;;;;;;7.38;1.77;;;;;;;18.85;60.69;102670.69;5033884;28;20056;-82
2022/10/03 11:44:24;;;;;;;5.25;2.03;;;;;;;18.81;61.54;102665.63;5034994;28;20059;-82
2022/10/03 11:46:59;;;;;;;7.80;2.30;;;;;;;18.76;61.42;102674.09;5034230;28;20094;-81
2022/10/03 11:49:48;;;;;;;6.10;1.95;;;;;;;18.78;62.67;102674.81;5033930;28;20239;-81
2022/10/03 11:52:34;;;;;;;7.45;2.05;;;;;;;18.69;59.87;102670.22;5019622;28;20057;-82
2022/10/03 11:55:08;;;;;;;6.45;2.00;;;;;;;18.63;60.22;102670.69;5033711;28;20072;-83
2022/10/03 11:57:37;;;;;;;7.78;1.83;;;;;;;18.63;62.95;102668.84;5045481;28;20057;-83
2022/10/03 12:00:20;;;;;;;10.70;1.90;;;;;;;18.70;63.32;102674.59;5053229;28;20166;-83
2022/10/03 12:03:09;;;;;;;7.47;1.95;;;;;;;18.63;61.63;102670.69;5051641;28;20112;-83
2022/10/03 12:09:06;;;;;;;5.38;1.60;;;;;;;18.66;62.89;102665.91;5053358;28;20036;-84
2022/10/03 12:11:40;;;;;;;7.18;1.70;;;;;;;18.55;58.07;102662.41;5023868;28;20049;-83
2022/10/03 12:14:09;;;;;;;6.45;1.77;;;;;;;18.55;57.38;102668.66;5033867;28;20029;-83
2022/10/03 12:17:04;;;;;;;5.45;1.70;;;;;;;18.62;59.92;102663.63;5033529;28;20025;-82
2022/10/03 12:19:52;;;;;;;6.20;1.60;;;;;;;18.61;59.74;102654.69;5053564;28;20024;-83
2022/10/03 12:22:29;;;;;;;6.82;1.73;;;;;;;18.62;59.16;102656.41;5013889;28;20057;-82
2022/10/03 12:25:05;;;;;;;6.88;1.80;;;;;;;18.58;60.46;102654.91;5026157;28;20633;-80
2022/10/03 12:27:49;;;;;;;6.05;1.77;;;;;;;18.63;62.15;102651.88;5033003;28;20021;-81
2022/10/03 12:30:17;;;;;;;6.07;1.60;;;;;;;18.60;62.09;102650.28;5032776;28;20032;-81
2022/10/03 12:33:22;;;;;;;6.22;1.75;;;;;;;18.51;62.03;102650.19;5032984;28;20083;-80
2022/10/03 12:35:56;;;;;;;5.82;1.85;;;;;;;18.40;61.98;102642.97;5012558;28;20064;-81
2022/10/03 12:38:44;;;;;;;6.93;1.90;;;;;;;18.31;62.93;102647.28;5035950;28;20034;-81
2022/10/03 12:41:24;;;;;;;11.00;2.63;;;;;;;18.25;63.28;102645.97;5039037;28;20025;-80
2022/10/03 12:43:49;;;;;;;9.93;2.40;;;;;;;18.20;59.40;102645.47;5053407;28;20041;-82
2022/10/03 12:46:29;;;;;;;5.37;1.87;;;;;;;18.27;60.34;102638.59;5022939;28;20030;-82
2022/10/03 12:49:14;;;;;;;7.38;2.08;;;;;;;18.25;58.20;102628.94;5023615;28;20556;-82
2022/10/03 12:52:00;;;;;;;9.30;2.00;;;;;;;18.30;61.79;102629.41;5034421;28;20033;-82
2022/10/03 12:54:59;;;;;;;8.18;2.00;;;;;;;18.39;61.33;102633.22;5034832;28;20057;-81
2022/10/03 12:57:46;;;;;;;8.65;2.28;;;;;;;18.37;61.41;102638.72;5014949;28;20038;-82
2022/10/03 13:00:24;;;;;;;6.57;1.80;;;;;;;18.33;59.45;102645.31;5015022;28;20030;-82
2022/10/03 13:03:14;;;;;;;8.10;2.10;;;;;;;18.25;59.72;102635.19;5016463;28;20026;-81
2022/10/03 13:06:11;;;;;;;7.32;2.00;;;;;;;18.27;61.09;102635.91;5014833;28;20026;-82